Latest Weather Observations for Tarcoola

IDS60801

Issued at 8:31 pm CST Saturday 30 July 2016 (issued every 30 minutes, with the page automatically refreshed every 10 minutes)

About weather observations | Map of weather stations | Latest weather observations for SA | Other Formats
Station Details ID: 016098 Name: TARCOOLA AERO Lat: -30.71 Lon: 134.58 Height: 123.0 m
Data from the previous 72 hours. | See also: Recent months at Tarcoola
Date/Time
CST
Temp
°C
App
Temp
°C
Dew
Point
°C
Rel
Hum
%
Delta-T
°C
Wind Press
QNH
hPa
Press
MSL
hPa
Rain since
9am
mm
Dir  Spd
km/h
Gust
km/h
Spd
kts
Gust
kts
30/08:30pm 19.4 15.7 -0.1 27 8.6 NW 9 17 5 9 1016.5 1016.6 0.0
30/08:00pm 16.7 13.2 1.2 35 6.9 ENE 9 11 5 6 1016.5 1016.6 0.0
30/07:30pm 17.3 13.8 1.3 34 7.1 NE 9 9 5 5 1016.5 1016.6 0.0
30/07:00pm 17.8 13.9 0.9 32 7.5 NNE 11 11 6 6 1016.2 1016.3 0.0
30/06:30pm 19.5 15.1 0.5 28 8.5 N 13 13 7 7 1016.1 1016.2 0.0
30/06:00pm 20.9 16.5 0.2 25 9.3 N 13 13 7 7 1016.0 1016.1 0.0
30/05:30pm 23.7 18.3 -1.3 19 11.2 NNW 17 22 9 12 1015.8 1015.9 0.0
30/05:00pm 24.7 19.0 -0.4 19 11.5 NNW 19 24 10 13 1015.8 1015.9 0.0
30/04:30pm 25.0 18.7 -0.9 18 11.8 NNW 22 30 12 16 1015.6 1015.7 0.0
30/04:00pm 24.5 18.6 -0.6 19 11.4 NNW 20 28 11 15 1015.6 1015.7 0.0
30/03:30pm 25.0 18.0 -0.2 19 11.6 N 26 37 14 20 1015.7 1015.8 0.0
30/03:00pm 24.2 16.9 -0.2 20 11.2 N 28 35 15 19 1015.7 1015.8 0.0
30/02:30pm 24.2 17.6 -0.2 20 11.2 NNW 24 35 13 19 1016.0 1016.1 0.0
30/02:00pm 23.8 16.6 0.8 22 10.7 N 28 39 15 21 1016.2 1016.3 0.0
30/01:30pm 23.1 15.1 0.2 22 10.5 N 32 43 17 23 1016.2 1016.3 0.0
30/01:00pm 22.5 15.7 0.9 24 10.0 NNW 26 37 14 20 1018.0 1018.1 0.0
30/12:30pm 22.0 15.5 0.5 24 9.8 N 24 35 13 19 1018.8 1018.9 0.0
30/12:00pm 21.0 14.7 1.3 27 9.0 N 24 33 13 18 1019.1 1019.2 0.0
30/11:30am 21.1 13.6 1.4 27 9.1 N 30 39 16 21 1019.5 1019.6 0.0
30/11:00am 19.6 12.1 1.1 29 8.4 N 30 35 16 19 1020.2 1020.3 0.0
30/10:30am 18.3 11.6 1.3 32 7.6 N 26 33 14 18 1020.6 1020.6 0.0
30/10:00am 16.8 9.7 1.3 35 6.9 N 28 33 15 18 1020.7 1020.7 0.0
30/09:30am 15.6 9.7 1.7 39 6.1 N 22 30 12 16 1020.8 1020.8 0.0
30/09:00am 13.6 8.2 2.2 46 5.0 NNE 20 28 11 15 1020.7 1020.7 0.0
30/08:30am 12.6 8.2 2.5 50 4.4 NNE 15 20 8 11 1021.0 1021.0 0.0
30/08:00am 11.7 8.0 2.5 53 4.0 NNE 11 15 6 8 1021.1 1021.1 0.0
30/07:30am 11.0 6.9 2.1 54 3.8 NNE 13 17 7 9 1020.8 1020.8 0.0
30/07:00am 11.1 7.3 1.9 53 3.9 NNE 11 15 6 8 1020.8 1020.8 0.0
30/06:30am 11.6 7.8 1.8 51 4.2 NNE 11 13 6 7 1020.6 1020.6 0.0
30/06:00am 12.2 8.0 1.8 49 4.5 NNE 13 19 7 10 1020.1 1020.2 0.0
30/05:30am 12.2 7.3 1.8 49 4.5 NNE 17 22 9 12 1019.8 1019.9 0.0
30/05:00am 12.4 7.5 1.7 48 4.6 NNE 17 20 9 11 1019.9 1020.0 0.0
30/04:30am 12.2 7.3 1.8 49 4.5 NNE 17 20 9 11 1019.8 1019.9 0.0
30/04:00am 12.5 8.3 1.8 48 4.6 N 13 17 7 9 1020.0 1020.1 0.0
30/03:30am 12.7 8.1 1.7 47 4.7 NNE 15 20 8 11 1019.9 1020.0 0.0
30/03:00am 13.1 8.5 1.8 46 4.9 NNE 15 20 8 11 1020.2 1020.3 0.0
30/02:30am 13.0 8.9 2.0 47 4.8 NNE 13 19 7 10 1020.5 1020.5 0.0
30/02:00am 12.1 8.0 2.3 51 4.3 NNE 13 15 7 8 1020.8 1020.8 0.0
30/01:30am 12.2 8.5 2.4 51 4.3 NE 11 13 6 7 1021.1 1021.1 0.0
30/01:00am 12.5 8.4 2.1 49 4.5 NE 13 15 7 8 1021.1 1021.1 0.0
30/12:30am 13.5 9.0 2.1 46 5.0 NNE 15 17 8 9 1021.4 1021.5 0.0
30/12:00am 13.5 8.7 2.4 47 4.9 NNE 17 22 9 12 1021.6 1021.7 0.0
 
Date/Time
CST
Temp
°C
App
Temp
°C
Dew
Point
°C
Rel
Hum
%
Delta-T
°C
Wind Press
QNH
hPa
Press
MSL
hPa
Rain since
9am
mm
Dir  Spd
km/h
Gust
km/h
Spd
kts
Gust
kts
29/11:30pm 13.8 8.5 2.1 45 5.1 NNE 19 20 10 11 1021.8 1021.9 0.0
29/11:00pm 13.2 9.1 2.1 47 4.9 NNE 13 17 7 9 1022.1 1022.2 0.0
29/10:30pm 11.6 7.4 1.8 51 4.2 NE 13 15 7 8 1022.2 1022.3 0.0
29/10:00pm 11.2 7.0 1.5 51 4.1 NE 13 13 7 7 1022.4 1022.5 0.0
29/09:30pm 11.0 7.5 1.5 52 4.0 NE 9 13 5 7 1022.6 1022.7 0.0
29/09:00pm 10.5 7.1 1.6 54 3.7 ENE 9 11 5 6 1022.4 1022.5 0.0
29/08:30pm 10.8 7.7 1.4 52 3.9 ENE 7 11 4 6 1022.6 1022.7 0.0
29/08:00pm 11.5 9.7 1.2 49 4.3 CALM 0 0 0 0 1022.4 1022.5 0.0
29/07:30pm 11.6 9.7 0.4 46 4.6 CALM 0 2 0 1 1022.2 1022.3 0.0
29/07:00pm 12.7 8.6 0.1 42 5.2 NNE 11 13 6 7 1021.7 1021.8 0.0
29/06:30pm 14.3 10.2 -0.5 36 6.2 NNE 11 13 6 7 1021.6 1021.7 0.0
29/06:00pm 16.8 12.6 -0.9 30 7.5 N 11 13 6 7 1021.8 1021.9 0.0
29/05:30pm 19.6 14.3 -0.9 25 8.9 N 17 20 9 11 1021.9 1022.0 0.0
29/05:00pm 20.5 15.9 -0.7 24 9.3 N 13 19 7 10 1021.7 1021.8 0.0
29/04:30pm 20.7 16.2 0.0 25 9.2 N 13 22 7 12 1021.9 1022.0 0.0
29/04:00pm 20.8 15.9 -0.5 24 9.4 N 15 20 8 11 1022.0 1022.1 0.0
29/03:30pm 20.7 15.6 0.5 26 9.1 NW 17 22 9 12 1022.1 1022.2 0.0
29/03:00pm 20.9 16.6 0.7 26 9.1 NNW 13 19 7 10 1022.3 1022.4 0.0
29/02:30pm 20.2 15.9 1.1 28 8.7 NNW 13 20 7 11 1022.7 1022.8 0.0
29/02:00pm 19.8 14.8 1.3 29 8.4 NNW 17 28 9 15 1023.0 1023.1 0.0
29/01:30pm 20.3 15.7 1.7 29 8.5 N 15 22 8 12 1023.4 1023.5 0.0
29/01:00pm 19.3 14.7 1.8 31 8.0 N 15 22 8 12 1024.1 1024.2 0.0
29/12:30pm 19.2 14.7 2.1 32 7.8 N 15 20 8 11 1025.0 1025.1 0.0
29/12:00pm 18.6 13.7 2.0 33 7.5 N 17 28 9 15 1025.7 1025.8 0.0
29/11:30am 18.0 13.7 3.1 37 6.9 N 15 22 8 12 1026.1 1026.2 0.0
29/11:00am 16.7 12.0 3.4 41 6.2 N 17 22 9 12 1026.3 1026.4 0.0
29/10:30am 16.1 11.2 3.9 44 5.7 N 19 24 10 13 1026.6 1026.7 0.0
29/10:00am 14.6 10.1 4.0 49 4.9 N 17 20 9 11 1026.8 1026.9 0.0
29/09:30am 12.3 8.1 3.8 56 3.8 N 15 20 8 11 1026.9 1027.0 0.0
29/09:00am 9.5 6.3 3.3 65 2.7 NE 9 11 5 6 1026.9 1027.0 0.0
29/08:30am 7.0 4.3 2.9 75 1.7 NE 6 9 3 5 1027.1 1027.2 0.0
29/08:00am 3.8 0.7 1.2 83 1.0 NE 7 9 4 5 1026.6 1026.7 0.0
29/07:30am 2.7 -0.9 0.3 84 0.9 NE 9 11 5 6 1026.4 1026.5 0.0
29/07:00am 3.0 -1.0 0.6 84 0.9 NE 11 11 6 6 1026.1 1026.2 0.0
29/06:30am 1.9 -0.1 -0.2 86 0.8 CALM 0 6 0 3 1025.9 1026.0 0.0
29/06:00am 1.5 -2.3 -0.4 87 0.7 NE 9 11 5 6 1025.5 1025.6 0.0
29/05:30am 1.8 -2.3 -0.4 85 0.8 NE 11 13 6 7 1025.7 1025.8 0.0
29/05:00am 2.2 0.2 0.1 86 0.8 CALM 0 0 0 0 1026.0 1026.1 0.0
29/04:30am 2.0 0.0 -0.4 84 0.9 CALM 0 0 0 0 1025.7 1025.8 0.0
29/04:00am 2.4 0.4 0.1 85 0.9 CALM 0 0 0 0 1025.8 1025.9 0.0
29/03:30am 2.7 0.0 0.1 83 1.0 ENE 4 9 2 5 1025.5 1025.6 0.0
29/03:00am 3.1 0.8 0.7 84 0.9 ENE 2 7 1 4 1025.4 1025.5 0.0
29/02:30am 2.6 -0.8 -0.3 81 1.1 ENE 7 11 4 6 1025.5 1025.6 0.0
29/02:00am 3.4 0.4 0.6 82 1.1 ENE 6 7 3 4 1026.0 1026.1 0.0
29/01:30am 3.6 0.4 0.7 81 1.1 NE 7 7 4 4 1026.3 1026.4 0.0
29/01:00am 4.3 1.2 1.2 80 1.2 NE 7 9 4 5 1026.5 1026.6 0.0
29/12:30am 4.1 1.0 1.3 82 1.1 NE 7 7 4 4 1026.8 1026.9 0.0
29/12:00am 4.1 0.2 1.0 80 1.2 NE 11 13 6 7 1026.9 1027.0 0.0
 
Date/Time
CST
Temp
°C
App
Temp
°C
Dew
Point
°C
Rel
Hum
%
Delta-T
°C
Wind Press
QNH
hPa
Press
MSL
hPa
Rain since
9am
mm
Dir  Spd
km/h
Gust
km/h
Spd
kts
Gust
kts
28/11:30pm 4.8 1.7 1.3 78 1.4 NE 7 7 4 4 1027.2 1027.3 0.0
28/11:00pm 5.5 2.5 1.8 77 1.5 NE 7 7 4 4 1027.4 1027.5 0.0
28/10:30pm 5.9 3.8 1.6 74 1.7 NE 2 7 1 4 1027.6 1027.7 0.0
28/10:00pm 6.2 4.5 1.7 73 1.8 CALM 0 4 0 2 1027.6 1027.7 0.0
28/09:30pm 7.2 4.5 2.5 72 1.9 ENE 6 6 3 3 1027.5 1027.6 0.0
28/09:00pm 7.8 5.0 2.9 71 2.1 ENE 7 9 4 5 1027.4 1027.5 0.0
28/08:30pm 7.9 4.6 2.6 69 2.2 ENE 9 9 5 5 1027.3 1027.4 0.0
28/08:00pm 9.1 6.5 3.3 67 2.5 E 6 9 3 5 1027.4 1027.5 0.0
28/07:30pm 9.3 7.1 3.3 66 2.6 ESE 4 7 2 4 1027.5 1027.6 0.0
28/07:00pm 10.9 9.6 4.1 63 3.0 CALM 0 0 0 0 1027.5 1027.6 0.0
28/06:30pm 12.5 11.2 4.0 56 3.8 CALM 0 0 0 0 1027.4 1027.5 0.0
28/06:00pm 14.6 13.3 4.0 49 4.9 CALM 0 0 0 0 1027.3 1027.4 0.0
28/05:30pm 16.6 14.2 4.3 44 5.8 NW 6 9 3 5 1027.3 1027.4 0.0
28/05:00pm 17.0 13.9 3.7 41 6.2 NW 9 13 5 7 1027.3 1027.4 0.0
28/04:30pm 17.8 14.7 3.7 39 6.6 NNW 9 19 5 10 1027.2 1027.3 0.0
28/04:00pm 17.5 14.1 3.8 40 6.4 NNW 11 15 6 8 1027.3 1027.4 0.0
28/03:30pm 18.2 14.7 3.7 38 6.8 NNW 11 15 6 8 1027.2 1027.3 0.0
28/03:00pm 18.0 14.1 3.5 38 6.8 NW 13 19 7 10 1027.4 1027.5 0.0
28/02:30pm 18.0 15.0 3.9 39 6.6 NNW 9 17 5 9 1027.6 1027.7 0.0
28/02:00pm 18.5 15.7 5.0 41 6.6 N 9 17 5 9 1028.1 1028.3 0.0
28/01:30pm 18.2 15.8 5.1 42 6.3 NE 7 11 4 6 1029.0 1029.1 0.0
28/01:00pm 17.5 14.2 4.5 42 6.2 NW 11 17 6 9 1029.4 1029.5 0.0
28/12:30pm 17.5 14.7 5.1 44 5.9 N 9 17 5 9 1030.0 1030.1 0.0
28/12:00pm 16.0 12.3 4.7 47 5.3 N 13 19 7 10 1030.6 1030.7 0.0
28/11:30am 15.8 12.2 4.8 48 5.2 NNE 13 19 7 10 1031.1 1031.2 0.0
28/11:00am 14.9 11.3 4.9 51 4.7 NNE 13 19 7 10 1031.5 1031.6 0.0
28/10:30am 14.5 10.6 5.3 54 4.3 NE 15 20 8 11 1031.5 1031.6 0.0
28/10:00am 13.7 9.4 5.3 57 4.0 ENE 17 20 9 11 1031.7 1031.8 0.0
28/09:30am 11.8 9.1 5.4 65 2.9 ENE 9 13 5 7 1031.8 1031.9 0.0
28/09:00am 8.5 7.3 4.5 76 1.8 CALM 0 0 0 0 1031.8 1031.9 0.0
28/08:30am 5.7 4.4 3.9 88 0.8 CALM 0 0 0 0 1031.6 1031.7 0.0
28/08:00am 2.1 0.2 0.5 89 0.6 CALM 0 0 0 0 1031.3 1031.4 0.0
28/07:30am 1.0 -1.1 -0.8 88 0.6 CALM 0 0 0 0 1030.8 1030.9 0.0
28/07:00am 1.1 -1.0 -0.7 88 0.6 CALM 0 0 0 0 1030.7 1030.8 0.0
28/06:30am 1.6 -0.4 0.0 89 0.6 CALM 0 0 0 0 1030.6 1030.7 0.0
28/06:00am 1.2 -0.9 -0.7 87 0.7 CALM 0 0 0 0 1030.2 1030.3 0.0
28/05:30am 1.7 -0.3 -0.2 87 0.7 CALM 0 0 0 0 1029.8 1029.9 0.0
28/05:00am 2.1 0.2 0.3 88 0.7 CALM 0 0 0 0 1029.5 1029.6 0.0
28/04:30am 2.5 0.6 0.7 88 0.7 CALM 0 0 0 0 1029.6 1029.7 0.0
28/04:00am 2.5 0.6 0.6 87 0.7 CALM 0 0 0 0 1029.6 1029.7 0.0
28/03:30am 3.1 1.3 1.3 88 0.7 CALM 0 0 0 0 1029.7 1029.8 0.0
28/03:00am 3.3 0.2 1.3 87 0.8 WSW 7 9 4 5 1029.6 1029.7 0.0
28/02:30am 4.1 2.4 2.1 87 0.8 CALM 0 0 0 0 1029.6 1029.7 0.0
28/02:00am 4.6 1.7 2.5 86 0.9 WSW 7 9 4 5 1029.9 1030.0 0.0
28/01:30am 5.2 3.7 2.9 85 0.9 CALM 0 0 0 0 1030.0 1030.1 0.0
28/01:00am 5.2 1.9 2.7 84 1.0 SW 9 9 5 5 1029.8 1029.9 0.0
28/12:30am 5.5 1.9 3.0 84 1.0 WSW 11 13 6 7 1029.6 1029.7 0.0
28/12:00am 5.7 2.5 2.9 82 1.2 WSW 9 9 5 5 1029.6 1029.7 0.0
 
Date/Time
CST
Temp
°C
App
Temp
°C
Dew
Point
°C
Rel
Hum
%
Delta-T
°C
Wind Press
QNH
hPa
Press
MSL
hPa
Rain since
9am
mm
Dir  Spd
km/h
Gust
km/h
Spd
kts
Gust
kts
27/11:30pm 6.4 3.2 3.2 80 1.3 SW 9 11 5 6 1029.6 1029.7 0.0
27/11:00pm 7.1 3.9 3.3 77 1.6 SW 9 11 5 6 1029.7 1029.8 0.0
27/10:30pm 8.5 7.2 4.1 74 1.9 CALM 0 0 0 0 1029.5 1029.6 0.0
27/10:00pm 8.7 6.6 3.7 71 2.2 SSE 4 7 2 4 1029.3 1029.4 0.0
27/09:30pm 9.9 7.0 4.9 71 2.2 SSE 9 13 5 7 1029.3 1029.4 0.0
27/09:00pm 8.8 5.7 3.6 70 2.2 SSW 9 9 5 5 1029.3 1029.4 0.0

Other Formats:

Comma delimited format used in spreadsheet applications
http://www.bom.gov.au/fwo/IDS60801/IDS60801.94655.axf

JavaScript Object Notation format (JSON) in row-major order
http://www.bom.gov.au/fwo/IDS60801/IDS60801.94655.json